sensor_id;sensor_type;location;lat;lon;timestamp;temperature;humidity
43338;DHT22;28933;52.492;13.434;2023-06-22T00:01:02;23.40;92.10
43338;DHT22;28933;52.492;13.434;2023-06-22T00:03:48;23.40;92.10
43338;DHT22;28933;52.492;13.434;2023-06-22T00:06:34;23.30;92.20
43338;DHT22;28933;52.492;13.434;2023-06-22T00:09:20;23.30;92.30
43338;DHT22;28933;52.492;13.434;2023-06-22T00:12:06;23.30;92.30
43338;DHT22;28933;52.492;13.434;2023-06-22T00:14:52;23.30;92.50
43338;DHT22;28933;52.492;13.434;2023-06-22T00:17:38;23.20;92.50
43338;DHT22;28933;52.492;13.434;2023-06-22T00:20:24;23.20;92.60
43338;DHT22;28933;52.492;13.434;2023-06-22T00:23:17;23.20;92.70
43338;DHT22;28933;52.492;13.434;2023-06-22T00:26:03;23.20;92.70
43338;DHT22;28933;52.492;13.434;2023-06-22T00:28:49;23.20;92.80
43338;DHT22;28933;52.492;13.434;2023-06-22T00:31:35;23.10;92.90
43338;DHT22;28933;52.492;13.434;2023-06-22T00:34:24;23.10;93.00
43338;DHT22;28933;52.492;13.434;2023-06-22T00:37:10;23.00;93.10
43338;DHT22;28933;52.492;13.434;2023-06-22T00:39:56;23.00;93.10
43338;DHT22;28933;52.492;13.434;2023-06-22T00:42:42;23.00;93.20
43338;DHT22;28933;52.492;13.434;2023-06-22T00:45:28;22.90;93.40
43338;DHT22;28933;52.492;13.434;2023-06-22T00:48:14;22.80;93.50
43338;DHT22;28933;52.492;13.434;2023-06-22T00:51:01;22.80;93.60
43338;DHT22;28933;52.492;13.434;2023-06-22T00:53:47;22.80;93.70
43338;DHT22;28933;52.492;13.434;2023-06-22T00:56:33;22.70;93.80
43338;DHT22;28933;52.492;13.434;2023-06-22T00:59:23;22.70;93.90
43338;DHT22;28933;52.492;13.434;2023-06-22T01:02:10;22.70;94.30
43338;DHT22;28933;52.492;13.434;2023-06-22T01:04:56;22.60;94.20
43338;DHT22;28933;52.492;13.434;2023-06-22T01:10:48;22.60;94.40
43338;DHT22;28933;52.492;13.434;2023-06-22T01:16:51;22.60;94.50
43338;DHT22;28933;52.492;13.434;2023-06-22T01:19:48;22.60;94.70
43338;DHT22;28933;52.492;13.434;2023-06-22T01:23:09;22.50;94.90
43338;DHT22;28933;52.492;13.434;2023-06-22T01:26:19;22.50;94.90
43338;DHT22;28933;52.492;13.434;2023-06-22T01:29:08;22.50;95.10
43338;DHT22;28933;52.492;13.434;2023-06-22T01:31:59;22.40;95.20
43338;DHT22;28933;52.492;13.434;2023-06-22T01:34:48;22.40;95.40
43338;DHT22;28933;52.492;13.434;2023-06-22T01:37:36;22.40;95.50
43338;DHT22;28933;52.492;13.434;2023-06-22T01:40:23;22.40;95.60
43338;DHT22;28933;52.492;13.434;2023-06-22T01:43:10;22.40;95.70
43338;DHT22;28933;52.492;13.434;2023-06-22T01:46:00;22.40;95.90
43338;DHT22;28933;52.492;13.434;2023-06-22T01:48:47;22.30;96.00
43338;DHT22;28933;52.492;13.434;2023-06-22T01:51:33;22.30;96.10
43338;DHT22;28933;52.492;13.434;2023-06-22T01:54:19;22.30;96.20
43338;DHT22;28933;52.492;13.434;2023-06-22T01:57:05;22.20;96.40
43338;DHT22;28933;52.492;13.434;2023-06-22T02:00:09;22.20;96.50
43338;DHT22;28933;52.492;13.434;2023-06-22T02:03:01;22.20;96.70
43338;DHT22;28933;52.492;13.434;2023-06-22T02:06:06;22.10;96.80
43338;DHT22;28933;52.492;13.434;2023-06-22T02:08:59;22.10;96.90
43338;DHT22;28933;52.492;13.434;2023-06-22T02:11:46;22.10;97.10
43338;DHT22;28933;52.492;13.434;2023-06-22T02:14:34;22.10;97.20
43338;DHT22;28933;52.492;13.434;2023-06-22T02:17:21;22.10;97.30
43338;DHT22;28933;52.492;13.434;2023-06-22T02:20:12;22.10;97.50
43338;DHT22;28933;52.492;13.434;2023-06-22T02:22:59;22.10;97.70
43338;DHT22;28933;52.492;13.434;2023-06-22T02:25:45;22.00;97.70
43338;DHT22;28933;52.492;13.434;2023-06-22T02:28:31;22.00;97.90
43338;DHT22;28933;52.492;13.434;2023-06-22T02:31:17;22.00;98.00
43338;DHT22;28933;52.492;13.434;2023-06-22T02:34:03;22.00;98.10
43338;DHT22;28933;52.492;13.434;2023-06-22T02:36:50;22.00;98.20
43338;DHT22;28933;52.492;13.434;2023-06-22T02:39:39;22.10;98.30
43338;DHT22;28933;52.492;13.434;2023-06-22T02:42:26;22.00;98.40
43338;DHT22;28933;52.492;13.434;2023-06-22T02:45:11;22.10;98.50
43338;DHT22;28933;52.492;13.434;2023-06-22T02:47:58;22.10;98.60
43338;DHT22;28933;52.492;13.434;2023-06-22T02:50:44;22.00;98.70
43338;DHT22;28933;52.492;13.434;2023-06-22T02:53:30;22.00;98.80
43338;DHT22;28933;52.492;13.434;2023-06-22T02:56:16;22.00;98.90
43338;DHT22;28933;52.492;13.434;2023-06-22T02:59:03;22.10;99.00
43338;DHT22;28933;52.492;13.434;2023-06-22T03:01:50;22.10;99.10
43338;DHT22;28933;52.492;13.434;2023-06-22T03:04:36;22.10;99.20
43338;DHT22;28933;52.492;13.434;2023-06-22T03:07:22;22.10;99.20
43338;DHT22;28933;52.492;13.434;2023-06-22T03:10:12;22.10;99.30
43338;DHT22;28933;52.492;13.434;2023-06-22T03:12:58;22.10;99.40
43338;DHT22;28933;52.492;13.434;2023-06-22T03:15:44;22.20;99.40
43338;DHT22;28933;52.492;13.434;2023-06-22T03:18:29;22.10;99.40
43338;DHT22;28933;52.492;13.434;2023-06-22T03:21:15;22.10;99.40
43338;DHT22;28933;52.492;13.434;2023-06-22T03:24:02;22.10;99.40
43338;DHT22;28933;52.492;13.434;2023-06-22T03:26:48;22.20;99.50
43338;DHT22;28933;52.492;13.434;2023-06-22T03:29:34;22.20;99.50
43338;DHT22;28933;52.492;13.434;2023-06-22T03:32:20;22.20;99.30
43338;DHT22;28933;52.492;13.434;2023-06-22T03:35:07;22.20;99.20
43338;DHT22;28933;52.492;13.434;2023-06-22T03:37:53;22.20;99.30
43338;DHT22;28933;52.492;13.434;2023-06-22T03:40:39;22.30;99.30
43338;DHT22;28933;52.492;13.434;2023-06-22T03:43:25;22.30;99.20
43338;DHT22;28933;52.492;13.434;2023-06-22T03:46:11;22.30;99.10
43338;DHT22;28933;52.492;13.434;2023-06-22T03:48:57;22.30;98.90
43338;DHT22;28933;52.492;13.434;2023-06-22T03:51:43;22.30;98.70
43338;DHT22;28933;52.492;13.434;2023-06-22T03:54:29;22.30;98.60
43338;DHT22;28933;52.492;13.434;2023-06-22T03:57:15;22.30;98.40
43338;DHT22;28933;52.492;13.434;2023-06-22T04:00:02;22.30;98.30
43338;DHT22;28933;52.492;13.434;2023-06-22T04:02:51;22.30;98.10
43338;DHT22;28933;52.492;13.434;2023-06-22T04:05:38;22.30;97.90
43338;DHT22;28933;52.492;13.434;2023-06-22T04:08:24;22.20;97.70
43338;DHT22;28933;52.492;13.434;2023-06-22T04:11:13;22.30;97.60
43338;DHT22;28933;52.492;13.434;2023-06-22T04:13:59;22.30;97.50
43338;DHT22;28933;52.492;13.434;2023-06-22T04:16:45;22.30;97.50
43338;DHT22;28933;52.492;13.434;2023-06-22T04:19:31;22.30;97.50
43338;DHT22;28933;52.492;13.434;2023-06-22T04:22:17;22.30;97.50
43338;DHT22;28933;52.492;13.434;2023-06-22T04:25:05;22.40;97.60
43338;DHT22;28933;52.492;13.434;2023-06-22T04:27:51;22.30;97.60
43338;DHT22;28933;52.492;13.434;2023-06-22T04:30:37;22.30;97.60
43338;DHT22;28933;52.492;13.434;2023-06-22T04:33:31;22.40;97.60
43338;DHT22;28933;52.492;13.434;2023-06-22T04:36:17;22.30;97.60
43338;DHT22;28933;52.492;13.434;2023-06-22T04:39:10;22.40;97.70
43338;DHT22;28933;52.492;13.434;2023-06-22T04:41:57;22.50;97.70
43338;DHT22;28933;52.492;13.434;2023-06-22T04:44:45;22.50;97.80
43338;DHT22;28933;52.492;13.434;2023-06-22T04:47:31;22.60;97.70
43338;DHT22;28933;52.492;13.434;2023-06-22T04:50:17;22.60;97.50
43338;DHT22;28933;52.492;13.434;2023-06-22T04:53:05;22.60;97.50
43338;DHT22;28933;52.492;13.434;2023-06-22T04:55:51;22.70;97.30
43338;DHT22;28933;52.492;13.434;2023-06-22T04:58:38;22.70;97.10
43338;DHT22;28933;52.492;13.434;2023-06-22T05:01:24;22.80;96.90
43338;DHT22;28933;52.492;13.434;2023-06-22T05:04:11;22.80;96.90
43338;DHT22;28933;52.492;13.434;2023-06-22T05:07:01;22.90;96.80
43338;DHT22;28933;52.492;13.434;2023-06-22T05:09:47;23.10;97.00
43338;DHT22;28933;52.492;13.434;2023-06-22T05:12:33;23.20;96.60
43338;DHT22;28933;52.492;13.434;2023-06-22T05:15:19;23.30;96.50
43338;DHT22;28933;52.492;13.434;2023-06-22T05:18:05;23.40;96.90
43338;DHT22;28933;52.492;13.434;2023-06-22T05:20:51;23.50;96.50
43338;DHT22;28933;52.492;13.434;2023-06-22T05:23:37;23.60;96.40
43338;DHT22;28933;52.492;13.434;2023-06-22T05:26:24;23.60;95.90
43338;DHT22;28933;52.492;13.434;2023-06-22T05:29:10;23.70;95.60
43338;DHT22;28933;52.492;13.434;2023-06-22T05:31:56;23.70;95.50
43338;DHT22;28933;52.492;13.434;2023-06-22T05:34:42;23.80;95.50
43338;DHT22;28933;52.492;13.434;2023-06-22T05:37:28;23.90;95.40
43338;DHT22;28933;52.492;13.434;2023-06-22T05:40:14;23.90;95.30
43338;DHT22;28933;52.492;13.434;2023-06-22T05:43:00;24.00;95.10
43338;DHT22;28933;52.492;13.434;2023-06-22T05:45:47;24.00;95.20
43338;DHT22;28933;52.492;13.434;2023-06-22T05:48:33;24.00;95.30
43338;DHT22;28933;52.492;13.434;2023-06-22T05:51:19;24.10;95.30
43338;DHT22;28933;52.492;13.434;2023-06-22T05:54:05;24.20;95.50
43338;DHT22;28933;52.492;13.434;2023-06-22T05:56:51;24.20;95.10
43338;DHT22;28933;52.492;13.434;2023-06-22T05:59:37;24.30;95.20
43338;DHT22;28933;52.492;13.434;2023-06-22T06:02:23;24.30;95.10
43338;DHT22;28933;52.492;13.434;2023-06-22T06:05:12;24.40;94.90
43338;DHT22;28933;52.492;13.434;2023-06-22T06:08:02;24.50;94.90
43338;DHT22;28933;52.492;13.434;2023-06-22T06:10:50;24.60;94.60
43338;DHT22;28933;52.492;13.434;2023-06-22T06:13:38;24.70;94.60
43338;DHT22;28933;52.492;13.434;2023-06-22T06:16:24;24.70;94.50
43338;DHT22;28933;52.492;13.434;2023-06-22T06:19:10;24.70;94.40
43338;DHT22;28933;52.492;13.434;2023-06-22T06:21:56;24.80;94.20
43338;DHT22;28933;52.492;13.434;2023-06-22T06:24:42;24.80;93.90
43338;DHT22;28933;52.492;13.434;2023-06-22T06:27:28;24.80;93.60
43338;DHT22;28933;52.492;13.434;2023-06-22T06:30:16;24.80;93.60
43338;DHT22;28933;52.492;13.434;2023-06-22T06:33:03;24.80;93.60
43338;DHT22;28933;52.492;13.434;2023-06-22T06:35:54;24.80;93.70
43338;DHT22;28933;52.492;13.434;2023-06-22T06:38:41;24.80;93.30
43338;DHT22;28933;52.492;13.434;2023-06-22T06:41:27;24.90;93.30
43338;DHT22;28933;52.492;13.434;2023-06-22T06:44:13;24.90;93.20
43338;DHT22;28933;52.492;13.434;2023-06-22T06:46:59;24.90;92.80
43338;DHT22;28933;52.492;13.434;2023-06-22T06:49:45;25.00;92.90
43338;DHT22;28933;52.492;13.434;2023-06-22T06:52:31;25.10;93.20
43338;DHT22;28933;52.492;13.434;2023-06-22T06:55:17;25.20;92.50
43338;DHT22;28933;52.492;13.434;2023-06-22T06:58:04;25.20;92.40
43338;DHT22;28933;52.492;13.434;2023-06-22T07:00:53;25.20;92.70
43338;DHT22;28933;52.492;13.434;2023-06-22T07:03:39;25.30;92.50
43338;DHT22;28933;52.492;13.434;2023-06-22T07:06:25;25.30;92.10
43338;DHT22;28933;52.492;13.434;2023-06-22T07:09:14;25.30;92.20
43338;DHT22;28933;52.492;13.434;2023-06-22T07:12:00;25.40;92.10
43338;DHT22;28933;52.492;13.434;2023-06-22T07:14:46;25.40;91.60
43338;DHT22;28933;52.492;13.434;2023-06-22T07:17:32;25.40;91.20
43338;DHT22;28933;52.492;13.434;2023-06-22T07:20:18;25.50;91.00
43338;DHT22;28933;52.492;13.434;2023-06-22T07:23:05;25.50;90.80
43338;DHT22;28933;52.492;13.434;2023-06-22T07:25:51;25.60;90.80
43338;DHT22;28933;52.492;13.434;2023-06-22T07:28:37;25.70;90.70
43338;DHT22;28933;52.492;13.434;2023-06-22T07:31:27;25.80;90.30
43338;DHT22;28933;52.492;13.434;2023-06-22T07:34:13;25.90;90.00
43338;DHT22;28933;52.492;13.434;2023-06-22T07:36:59;26.00;89.30
43338;DHT22;28933;52.492;13.434;2023-06-22T07:39:45;26.00;88.60
43338;DHT22;28933;52.492;13.434;2023-06-22T07:42:31;26.10;88.20
43338;DHT22;28933;52.492;13.434;2023-06-22T07:45:18;26.20;87.30
43338;DHT22;28933;52.492;13.434;2023-06-22T07:48:04;26.20;86.60
43338;DHT22;28933;52.492;13.434;2023-06-22T07:50:50;26.30;86.20
43338;DHT22;28933;52.492;13.434;2023-06-22T07:53:36;26.40;85.10
43338;DHT22;28933;52.492;13.434;2023-06-22T07:56:22;26.50;85.60
43338;DHT22;28933;52.492;13.434;2023-06-22T07:59:08;26.60;85.30
43338;DHT22;28933;52.492;13.434;2023-06-22T08:01:55;26.80;84.60
43338;DHT22;28933;52.492;13.434;2023-06-22T08:04:41;26.80;82.00
43338;DHT22;28933;52.492;13.434;2023-06-22T08:07:27;26.90;81.60
43338;DHT22;28933;52.492;13.434;2023-06-22T08:10:13;27.00;80.90
43338;DHT22;28933;52.492;13.434;2023-06-22T08:12:59;27.00;79.60
43338;DHT22;28933;52.492;13.434;2023-06-22T08:15:45;27.10;79.20
43338;DHT22;28933;52.492;13.434;2023-06-22T08:18:31;27.10;79.40
43338;DHT22;28933;52.492;13.434;2023-06-22T08:21:17;27.20;79.30
43338;DHT22;28933;52.492;13.434;2023-06-22T08:24:03;27.40;79.10
43338;DHT22;28933;52.492;13.434;2023-06-22T08:26:51;27.50;79.20
43338;DHT22;28933;52.492;13.434;2023-06-22T08:29:37;27.60;79.00
43338;DHT22;28933;52.492;13.434;2023-06-22T08:32:24;27.60;78.80
43338;DHT22;28933;52.492;13.434;2023-06-22T08:35:12;27.60;78.40
43338;DHT22;28933;52.492;13.434;2023-06-22T08:37:58;27.70;78.70
43338;DHT22;28933;52.492;13.434;2023-06-22T08:40:45;27.80;78.60
43338;DHT22;28933;52.492;13.434;2023-06-22T08:43:31;27.80;79.80
43338;DHT22;28933;52.492;13.434;2023-06-22T08:46:17;27.90;79.60
43338;DHT22;28933;52.492;13.434;2023-06-22T08:49:07;28.00;79.50
43338;DHT22;28933;52.492;13.434;2023-06-22T08:51:53;28.00;78.40
43338;DHT22;28933;52.492;13.434;2023-06-22T08:54:41;28.10;78.20
43338;DHT22;28933;52.492;13.434;2023-06-22T08:57:28;28.30;77.80
43338;DHT22;28933;52.492;13.434;2023-06-22T09:00:15;28.30;76.70
43338;DHT22;28933;52.492;13.434;2023-06-22T09:03:03;28.40;76.00
43338;DHT22;28933;52.492;13.434;2023-06-22T09:05:48;28.50;74.80
43338;DHT22;28933;52.492;13.434;2023-06-22T09:08:36;28.60;75.00
43338;DHT22;28933;52.492;13.434;2023-06-22T09:11:21;28.70;73.70
43338;DHT22;28933;52.492;13.434;2023-06-22T09:14:08;28.80;73.50
43338;DHT22;28933;52.492;13.434;2023-06-22T09:16:54;28.80;72.60
43338;DHT22;28933;52.492;13.434;2023-06-22T09:19:40;28.80;71.10
43338;DHT22;28933;52.492;13.434;2023-06-22T09:22:28;28.90;70.70
43338;DHT22;28933;52.492;13.434;2023-06-22T09:25:15;28.90;70.80
43338;DHT22;28933;52.492;13.434;2023-06-22T09:28:00;28.90;71.60
43338;DHT22;28933;52.492;13.434;2023-06-22T09:30:46;29.00;71.20
43338;DHT22;28933;52.492;13.434;2023-06-22T09:33:32;29.10;70.80
43338;DHT22;28933;52.492;13.434;2023-06-22T09:36:19;29.10;70.30
43338;DHT22;28933;52.492;13.434;2023-06-22T09:39:04;29.20;71.10
43338;DHT22;28933;52.492;13.434;2023-06-22T09:41:52;29.20;70.40
43338;DHT22;28933;52.492;13.434;2023-06-22T09:44:38;29.20;70.50
43338;DHT22;28933;52.492;13.434;2023-06-22T09:47:24;29.20;70.50
43338;DHT22;28933;52.492;13.434;2023-06-22T09:50:10;29.10;70.40
43338;DHT22;28933;52.492;13.434;2023-06-22T09:52:56;29.10;71.60
43338;DHT22;28933;52.492;13.434;2023-06-22T09:55:42;29.20;71.20
43338;DHT22;28933;52.492;13.434;2023-06-22T09:58:28;29.20;71.20
43338;DHT22;28933;52.492;13.434;2023-06-22T10:01:14;29.20;71.20
43338;DHT22;28933;52.492;13.434;2023-06-22T10:04:01;29.20;71.50
43338;DHT22;28933;52.492;13.434;2023-06-22T10:06:47;29.20;71.80
43338;DHT22;28933;52.492;13.434;2023-06-22T10:09:33;29.30;72.50
43338;DHT22;28933;52.492;13.434;2023-06-22T10:12:19;29.30;72.50
43338;DHT22;28933;52.492;13.434;2023-06-22T10:15:06;29.40;72.30
43338;DHT22;28933;52.492;13.434;2023-06-22T10:17:52;29.40;72.00
43338;DHT22;28933;52.492;13.434;2023-06-22T10:20:38;29.30;70.90
43338;DHT22;28933;52.492;13.434;2023-06-22T10:23:24;29.20;70.90
43338;DHT22;28933;52.492;13.434;2023-06-22T10:26:10;29.20;71.60
43338;DHT22;28933;52.492;13.434;2023-06-22T10:28:56;29.20;71.20
43338;DHT22;28933;52.492;13.434;2023-06-22T10:31:42;29.20;71.00
43338;DHT22;28933;52.492;13.434;2023-06-22T10:34:28;29.20;70.70
43338;DHT22;28933;52.492;13.434;2023-06-22T10:37:14;29.20;70.70
43338;DHT22;28933;52.492;13.434;2023-06-22T10:40:00;29.20;70.30
43338;DHT22;28933;52.492;13.434;2023-06-22T10:42:46;29.20;70.10
43338;DHT22;28933;52.492;13.434;2023-06-22T10:45:32;29.20;69.70
43338;DHT22;28933;52.492;13.434;2023-06-22T10:48:18;29.10;69.90
43338;DHT22;28933;52.492;13.434;2023-06-22T10:51:04;29.10;69.00
43338;DHT22;28933;52.492;13.434;2023-06-22T10:53:50;29.00;69.10
43338;DHT22;28933;52.492;13.434;2023-06-22T10:56:36;29.00;68.40
43338;DHT22;28933;52.492;13.434;2023-06-22T10:59:22;29.00;68.60
43338;DHT22;28933;52.492;13.434;2023-06-22T11:02:09;29.00;68.60
43338;DHT22;28933;52.492;13.434;2023-06-22T11:04:55;29.00;68.60
43338;DHT22;28933;52.492;13.434;2023-06-22T11:07:42;29.10;69.00
43338;DHT22;28933;52.492;13.434;2023-06-22T11:10:29;29.20;68.70
43338;DHT22;28933;52.492;13.434;2023-06-22T11:13:15;29.20;68.60
43338;DHT22;28933;52.492;13.434;2023-06-22T11:16:01;29.30;67.80
43338;DHT22;28933;52.492;13.434;2023-06-22T11:18:47;29.40;68.80
43338;DHT22;28933;52.492;13.434;2023-06-22T11:21:33;29.50;68.70
43338;DHT22;28933;52.492;13.434;2023-06-22T11:24:19;29.60;67.80
43338;DHT22;28933;52.492;13.434;2023-06-22T11:27:05;29.70;68.00
43338;DHT22;28933;52.492;13.434;2023-06-22T11:29:51;29.70;67.80
43338;DHT22;28933;52.492;13.434;2023-06-22T11:32:38;29.90;68.50
43338;DHT22;28933;52.492;13.434;2023-06-22T11:35:25;29.90;67.40
43338;DHT22;28933;52.492;13.434;2023-06-22T11:38:10;30.00;66.40
43338;DHT22;28933;52.492;13.434;2023-06-22T11:40:58;30.00;66.30
43338;DHT22;28933;52.492;13.434;2023-06-22T11:43:44;30.00;66.80
43338;DHT22;28933;52.492;13.434;2023-06-22T11:46:30;30.00;66.50
43338;DHT22;28933;52.492;13.434;2023-06-22T11:49:17;30.00;65.70
43338;DHT22;28933;52.492;13.434;2023-06-22T11:52:03;30.00;65.10
43338;DHT22;28933;52.492;13.434;2023-06-22T11:54:49;29.90;64.00
43338;DHT22;28933;52.492;13.434;2023-06-22T11:57:36;29.80;64.80
43338;DHT22;28933;52.492;13.434;2023-06-22T12:00:23;29.80;65.00
43338;DHT22;28933;52.492;13.434;2023-06-22T12:03:09;29.90;65.30
43338;DHT22;28933;52.492;13.434;2023-06-22T12:05:57;30.00;66.00
43338;DHT22;28933;52.492;13.434;2023-06-22T12:08:42;30.10;65.10
43338;DHT22;28933;52.492;13.434;2023-06-22T12:11:28;30.20;65.10
43338;DHT22;28933;52.492;13.434;2023-06-22T12:14:14;30.20;64.90
43338;DHT22;28933;52.492;13.434;2023-06-22T12:17:00;30.20;64.40
43338;DHT22;28933;52.492;13.434;2023-06-22T12:19:46;30.10;64.00
43338;DHT22;28933;52.492;13.434;2023-06-22T12:22:32;30.10;63.70
43338;DHT22;28933;52.492;13.434;2023-06-22T12:25:19;30.20;63.80
43338;DHT22;28933;52.492;13.434;2023-06-22T12:28:04;30.20;63.80
43338;DHT22;28933;52.492;13.434;2023-06-22T12:30:50;30.20;63.40
43338;DHT22;28933;52.492;13.434;2023-06-22T12:33:36;30.00;62.60
43338;DHT22;28933;52.492;13.434;2023-06-22T12:36:22;30.00;63.20
43338;DHT22;28933;52.492;13.434;2023-06-22T12:39:09;29.90;62.70
43338;DHT22;28933;52.492;13.434;2023-06-22T12:41:55;30.00;63.30
43338;DHT22;28933;52.492;13.434;2023-06-22T12:44:41;30.10;63.90
43338;DHT22;28933;52.492;13.434;2023-06-22T12:47:27;30.20;63.50
43338;DHT22;28933;52.492;13.434;2023-06-22T12:50:13;30.30;63.60
43338;DHT22;28933;52.492;13.434;2023-06-22T12:52:59;30.40;63.70
43338;DHT22;28933;52.492;13.434;2023-06-22T12:55:47;30.40;63.80
43338;DHT22;28933;52.492;13.434;2023-06-22T12:58:33;30.40;63.00
43338;DHT22;28933;52.492;13.434;2023-06-22T13:01:19;30.40;63.00
43338;DHT22;28933;52.492;13.434;2023-06-22T13:04:05;30.30;62.90
43338;DHT22;28933;52.492;13.434;2023-06-22T13:06:51;30.30;62.90
43338;DHT22;28933;52.492;13.434;2023-06-22T13:09:37;30.20;62.60
43338;DHT22;28933;52.492;13.434;2023-06-22T13:12:23;30.30;63.90
43338;DHT22;28933;52.492;13.434;2023-06-22T13:15:09;30.40;63.70
43338;DHT22;28933;52.492;13.434;2023-06-22T13:17:55;30.60;64.30
43338;DHT22;28933;52.492;13.434;2023-06-22T13:20:41;30.80;64.00
43338;DHT22;28933;52.492;13.434;2023-06-22T13:23:27;31.00;62.90
43338;DHT22;28933;52.492;13.434;2023-06-22T13:26:13;31.00;63.60
43338;DHT22;28933;52.492;13.434;2023-06-22T13:28:59;31.10;63.00
43338;DHT22;28933;52.492;13.434;2023-06-22T13:31:45;31.20;62.80
43338;DHT22;28933;52.492;13.434;2023-06-22T13:34:31;31.20;62.30
43338;DHT22;28933;52.492;13.434;2023-06-22T13:37:17;31.20;61.60
43338;DHT22;28933;52.492;13.434;2023-06-22T13:40:05;31.20;61.50
43338;DHT22;28933;52.492;13.434;2023-06-22T13:42:52;31.20;61.80
43338;DHT22;28933;52.492;13.434;2023-06-22T13:45:38;31.20;61.60
43338;DHT22;28933;52.492;13.434;2023-06-22T13:48:24;31.10;61.40
43338;DHT22;28933;52.492;13.434;2023-06-22T13:51:11;31.10;61.50
43338;DHT22;28933;52.492;13.434;2023-06-22T13:53:57;31.10;61.50
43338;DHT22;28933;52.492;13.434;2023-06-22T13:56:43;31.10;61.50
43338;DHT22;28933;52.492;13.434;2023-06-22T13:59:30;31.10;61.40
43338;DHT22;28933;52.492;13.434;2023-06-22T14:02:16;31.10;61.10
43338;DHT22;28933;52.492;13.434;2023-06-22T14:05:02;31.00;61.10
43338;DHT22;28933;52.492;13.434;2023-06-22T14:07:48;31.00;61.00
43338;DHT22;28933;52.492;13.434;2023-06-22T14:10:34;31.10;61.40
43338;DHT22;28933;52.492;13.434;2023-06-22T14:13:20;31.00;61.20
43338;DHT22;28933;52.492;13.434;2023-06-22T14:16:06;31.10;61.10
43338;DHT22;28933;52.492;13.434;2023-06-22T14:18:52;31.10;61.30
43338;DHT22;28933;52.492;13.434;2023-06-22T14:21:38;31.20;61.10
43338;DHT22;28933;52.492;13.434;2023-06-22T14:24:24;31.20;60.80
43338;DHT22;28933;52.492;13.434;2023-06-22T14:27:09;31.30;61.10
43338;DHT22;28933;52.492;13.434;2023-06-22T14:29:55;31.30;60.80
43338;DHT22;28933;52.492;13.434;2023-06-22T14:32:43;31.40;61.40
43338;DHT22;28933;52.492;13.434;2023-06-22T14:35:29;31.50;61.00
43338;DHT22;28933;52.492;13.434;2023-06-22T14:38:15;31.50;60.60
43338;DHT22;28933;52.492;13.434;2023-06-22T14:41:01;31.60;60.40
43338;DHT22;28933;52.492;13.434;2023-06-22T14:43:48;31.60;59.80
43338;DHT22;28933;52.492;13.434;2023-06-22T14:46:35;31.60;60.30
43338;DHT22;28933;52.492;13.434;2023-06-22T14:49:21;31.50;60.00
43338;DHT22;28933;52.492;13.434;2023-06-22T14:52:07;31.50;60.10
43338;DHT22;28933;52.492;13.434;2023-06-22T14:54:53;31.50;60.00
43338;DHT22;28933;52.492;13.434;2023-06-22T14:57:39;31.50;59.70
43338;DHT22;28933;52.492;13.434;2023-06-22T15:00:25;31.50;60.00
43338;DHT22;28933;52.492;13.434;2023-06-22T15:03:11;31.40;59.90
43338;DHT22;28933;52.492;13.434;2023-06-22T15:06:03;31.40;60.00
43338;DHT22;28933;52.492;13.434;2023-06-22T15:08:49;31.40;59.90
43338;DHT22;28933;52.492;13.434;2023-06-22T15:11:35;31.40;59.60
43338;DHT22;28933;52.492;13.434;2023-06-22T15:14:21;31.40;59.80
43338;DHT22;28933;52.492;13.434;2023-06-22T15:17:08;31.50;60.20
43338;DHT22;28933;52.492;13.434;2023-06-22T15:19:55;31.50;60.10
43338;DHT22;28933;52.492;13.434;2023-06-22T15:22:41;31.60;60.30
43338;DHT22;28933;52.492;13.434;2023-06-22T15:25:27;31.60;59.90
43338;DHT22;28933;52.492;13.434;2023-06-22T15:28:13;31.60;59.80
43338;DHT22;28933;52.492;13.434;2023-06-22T15:30:59;31.60;59.80
43338;DHT22;28933;52.492;13.434;2023-06-22T15:33:45;31.60;59.80
43338;DHT22;28933;52.492;13.434;2023-06-22T15:36:31;31.60;60.00
43338;DHT22;28933;52.492;13.434;2023-06-22T15:39:19;31.60;59.80
43338;DHT22;28933;52.492;13.434;2023-06-22T15:42:05;31.50;60.10
43338;DHT22;28933;52.492;13.434;2023-06-22T15:44:51;31.40;60.50
43338;DHT22;28933;52.492;13.434;2023-06-22T15:47:37;31.40;60.60
43338;DHT22;28933;52.492;13.434;2023-06-22T15:50:23;31.30;60.40
43338;DHT22;28933;52.492;13.434;2023-06-22T15:53:09;31.30;60.80
43338;DHT22;28933;52.492;13.434;2023-06-22T15:55:55;31.30;60.60
43338;DHT22;28933;52.492;13.434;2023-06-22T15:58:41;31.30;60.50
43338;DHT22;28933;52.492;13.434;2023-06-22T16:01:27;31.20;60.60
43338;DHT22;28933;52.492;13.434;2023-06-22T16:04:13;31.20;60.60
43338;DHT22;28933;52.492;13.434;2023-06-22T16:06:59;31.10;60.70
43338;DHT22;28933;52.492;13.434;2023-06-22T16:09:45;30.90;60.80
43338;DHT22;28933;52.492;13.434;2023-06-22T16:12:31;30.90;61.40
43338;DHT22;28933;52.492;13.434;2023-06-22T16:15:16;31.00;61.00
43338;DHT22;28933;52.492;13.434;2023-06-22T16:18:02;31.00;61.20
43338;DHT22;28933;52.492;13.434;2023-06-22T16:20:48;31.00;61.30
43338;DHT22;28933;52.492;13.434;2023-06-22T16:23:35;31.10;61.40
43338;DHT22;28933;52.492;13.434;2023-06-22T16:26:20;31.00;61.10
43338;DHT22;28933;52.492;13.434;2023-06-22T16:29:07;31.00;61.00
43338;DHT22;28933;52.492;13.434;2023-06-22T16:31:53;30.90;61.20
43338;DHT22;28933;52.492;13.434;2023-06-22T16:34:39;30.80;61.20
43338;DHT22;28933;52.492;13.434;2023-06-22T16:37:25;30.70;61.40
43338;DHT22;28933;52.492;13.434;2023-06-22T16:40:11;30.60;61.50
43338;DHT22;28933;52.492;13.434;2023-06-22T16:42:57;30.50;61.80
43338;DHT22;28933;52.492;13.434;2023-06-22T16:45:43;30.40;61.90
43338;DHT22;28933;52.492;13.434;2023-06-22T16:48:29;30.30;61.90
43338;DHT22;28933;52.492;13.434;2023-06-22T16:51:15;30.20;62.40
43338;DHT22;28933;52.492;13.434;2023-06-22T16:54:01;30.00;62.40
43338;DHT22;28933;52.492;13.434;2023-06-22T16:56:47;29.90;62.60
43338;DHT22;28933;52.492;13.434;2023-06-22T16:59:33;29.80;62.90
43338;DHT22;28933;52.492;13.434;2023-06-22T17:02:20;29.70;63.30
43338;DHT22;28933;52.492;13.434;2023-06-22T17:05:08;29.70;63.50
43338;DHT22;28933;52.492;13.434;2023-06-22T17:07:58;29.50;63.30
43338;DHT22;28933;52.492;13.434;2023-06-22T17:10:46;29.40;63.90
43338;DHT22;28933;52.492;13.434;2023-06-22T17:13:34;29.40;63.60
43338;DHT22;28933;52.492;13.434;2023-06-22T17:16:22;29.30;63.80
43338;DHT22;28933;52.492;13.434;2023-06-22T17:19:09;29.20;63.90
43338;DHT22;28933;52.492;13.434;2023-06-22T17:21:56;29.20;64.00